^^
Station Historical Data
Daily Summary for October 1, 2017 Units:  Metric    English   Both
« Previous Day
Next Day »
Daily Weekly Monthly Yearly Custom
  High: Low: Average:
Temperature: 34.8 °C 17.9 °C 25.3 °C
Dew Point: 9.2 °C -6.4 °C -0.4 °C
Humidity: 35% 7% 19%
Wind Speed: 25.9km/h 0km/h 6.4km/h
Wind Gust: 30.6km/h - -
Wind- - WSW
Pressure: 1010.4 hPa 1005 hPa -
Precipitation: 0 mm    
Historical Graphs
 
 
Tabular Data for October 1, 2017
Time Temperature Dew Point Pressure Wind Wind Speed Wind Gust Humidity Rainfall Rate (Hourly) solar Conditions
00:15 24.2 °C -6 °C 1010 hPa Calm     13% 0 mm 0.0 W/m2
00:25 24.2 °C -6 °C 1010 hPa Calm     13% 0 mm 0.0 W/m2
00:35 23.7 °C -5.4 °C 1010 hPa Calm     14% 0 mm 0.0 W/m2
00:46 23.4 °C -4.7 °C 1010 hPa Calm     15% 0 mm 0.0 W/m2
00:54 23.7 °C -4.5 °C 1010 hPa Calm     15% 0 mm 0.0 W/m2
01:03 23.4 °C -4.7 °C 1010 hPa Calm     15% 0 mm 0.0 W/m2
01:08 23.2 °C -4.9 °C 1010 hPa Calm     15% 0 mm 0.0 W/m2
01:13 22.9 °C -5.1 °C 1010 hPa Calm     15% 0 mm 0.0 W/m2
01:19 22.9 °C -5.1 °C 1010 hPa Calm     15% 0 mm 0.0 W/m2
01:29 22.3 °C -4.7 °C 1009.7 hPa Calm     16% 0 mm 0.0 W/m2
01:34 22.1 °C -4.9 °C 1009.7 hPa Calm     16% 0 mm 0.0 W/m2
01:39 21.8 °C -5.1 °C 1009.7 hPa Calm     16% 0 mm 0.0 W/m2
01:45 21.4 °C -3.9 °C 1009.7 hPa Calm     18% 0 mm 0.0 W/m2
01:50 21 °C -5 °C 1009.7 hPa Calm     17% 0 mm 0.0 W/m2
02:00 20.1 °C -5 °C 1009.7 hPa Calm     18% 0 mm 0.0 W/m2
02:05 19.9 °C -5.1 °C 1009.4 hPa Calm     18% 0 mm 0.0 W/m2
02:10 19.7 °C -4.6 °C 1009.4 hPa Calm     19% 0 mm 0.0 W/m2
02:20 19.4 °C -4.1 °C 1009.4 hPa Calm     20% 0 mm 0.0 W/m2
02:26 19.2 °C -3.7 °C 1009.4 hPa Calm     21% 0 mm 0.0 W/m2
02:31 18.9 °C -4.6 °C 1009.4 hPa Calm     20% 0 mm 0.0 W/m2
02:36 18.9 °C -4.6 °C 1009 hPa Calm     20% 0 mm 0.0 W/m2
02:41 18.7 °C -4.7 °C 1009 hPa Calm     20% 0 mm 0.0 W/m2
02:46 18.6 °C -4.8 °C 1009 hPa Calm     20% 0 mm 0.0 W/m2
02:51 18.4 °C -5 °C 1009 hPa Calm     20% 0 mm 0.0 W/m2
02:56 18.4 °C -5 °C 1009 hPa Calm     20% 0 mm 0.0 W/m2
03:02 18.3 °C -5.1 °C 1009 hPa Calm     20% 0 mm 0.0 W/m2
03:11 18.4 °C -5.7 °C 1009 hPa Calm     19% 0 mm 0.0 W/m2
03:17 18.3 °C -5.7 °C 1009 hPa Calm     19% 0 mm 0.0 W/m2
03:22 18.3 °C -5.1 °C 1009 hPa Calm     20% 0 mm 0.0 W/m2
03:27 18.3 °C -5.1 °C 1009 hPa Calm     20% 0 mm 0.0 W/m2
03:32 18.4 °C -5 °C 1009 hPa Calm     20% 0 mm 0.0 W/m2
03:37 18.4 °C -5 °C 1009 hPa Calm     20% 0 mm 0.0 W/m2
03:42 18.2 °C -5.1 °C 1009 hPa Calm     20% 0 mm 0.0 W/m2
03:47 18 °C -4.7 °C 1009.4 hPa Calm     21% 0 mm 0.0 W/m2
03:53 17.9 °C -4.7 °C 1009.4 hPa Calm     21% 0 mm 0.0 W/m2
03:58 17.9 °C -4.1 °C 1009.4 hPa Calm     22% 0 mm 0.0 W/m2
04:08 18.1 °C -4.6 °C 1009.7 hPa Calm     21% 0 mm 0.0 W/m2
04:13 18.2 °C -5.1 °C 1009.7 hPa Calm     20% 0 mm 0.0 W/m2
04:18 18.4 °C -5 °C 1009.7 hPa Calm     20% 0 mm 0.0 W/m2
04:24 18.4 °C -5 °C 1010 hPa Calm     20% 0 mm 0.0 W/m2
04:29 18.7 °C -4.7 °C 1010.4 hPa Calm     20% 0 mm 0.0 W/m2
04:39 20.6 °C -3.2 °C 1010 hPa Calm     20% 0 mm 0.0 W/m2
04:44 21.2 °C -4.1 °C 1010 hPa Calm   11.3 km/h 18% 0 mm 0.0 W/m2
04:54 21.8 °C -3.6 °C 1010 hPa SW 7.9 km/h 9.7 km/h 18% 0 mm 0.0 W/m2
05:04 21.8 °C -2.9 °C 1010 hPa Calm   14.5 km/h 19% 0 mm 0.0 W/m2
05:09 21.9 °C -2.8 °C 1010 hPa SW 4.7 km/h 12.9 km/h 19% 0 mm 0.0 W/m2
05:14 21.8 °C -2.9 °C 1010 hPa SW 6.4 km/h 9.7 km/h 19% 0 mm 0.0 W/m2
05:24 20.8 °C -3 °C 1010 hPa Calm     20% 0 mm 0.0 W/m2
05:29 20.4 °C -2.7 °C 1010 hPa Calm   4.8 km/h 21% 0 mm 0.0 W/m2
05:34 20.3 °C -2.7 °C 1009.7 hPa Calm     21% 0 mm 0.0 W/m2
05:40 20.1 °C -2.9 °C 1009.7 hPa Calm     21% 0 mm 0.0 W/m2
06:21 18.7 °C -2.9 °C 1009.7 hPa Calm     23% 0 mm 0.0 W/m2
06:36 18.3 °C -2.6 °C 1009.7 hPa Calm     24% 0 mm 0.0 W/m2
07:01 18.3 °C -2.1 °C 1010 hPa Calm     25% 0 mm 44.0 W/m2
07:17 18.7 °C -0.2 °C 1010 hPa Calm     28% 0 mm 88.0 W/m2
07:38 19.8 °C 3.1 °C 1010 hPa Calm     33% 0 mm 141.0 W/m2
07:53 22.1 °C 4.6 °C 1010 hPa Calm     32% 0 mm 197.0 W/m2
08:07 23.7 °C 5.1 °C 1010 hPa Calm   11.3 km/h 30% 0 mm 248.0 W/m2
08:15 24.5 °C 8 °C 1010 hPa SW 9.7 km/h 12.9 km/h 35% 0 mm 279.0 W/m2
08:21 25 °C 8.5 °C 1010 hPa Calm   17.7 km/h 35% 0 mm 299.0 W/m2
08:28 25.4 °C 8.8 °C 1010 hPa SW 4.7 km/h 19.3 km/h 35% 0 mm 330.0 W/m2
08:43 25.7 °C 8.7 °C 1010 hPa WNW 11.1 km/h 20.9 km/h 34% 0 mm 362.0 W/m2
08:52 25.8 °C 9.2 °C 1010 hPa WNW 9.7 km/h 17.7 km/h 35% 0 mm 404.0 W/m2
09:00 26.1 °C 9 °C 1010 hPa Calm   16.1 km/h 34% 0 mm 434.0 W/m2
10:09 27.7 °C 8.5 °C 1009.7 hPa Calm   22.5 km/h 30% 0 mm 652.0 W/m2
10:15 28.1 °C 8.4 °C 1009.7 hPa NNW 9.7 km/h 22.5 km/h 29% 0 mm 668.0 W/m2
10:20 28.1 °C 8.4 °C 1009.7 hPa NNW 11.1 km/h 14.5 km/h 29% 0 mm 677.0 W/m2
10:30 28.4 °C 8.1 °C 1010 hPa NNW 9.7 km/h 20.9 km/h 28% 0 mm 693.0 W/m2
10:40 28.6 °C 7.8 °C 1009.7 hPa NNW 17.7 km/h 22.5 km/h 27% 0 mm 719.0 W/m2
10:45 28.8 °C 7.9 °C 1009.7 hPa NNW 7.9 km/h 17.7 km/h 27% 0 mm 731.0 W/m2
10:50 28.9 °C 8 °C 1009.7 hPa NNW 1.4 km/h 12.9 km/h 27% 0 mm 745.0 W/m2
10:55 28.9 °C 8 °C 1009.7 hPa NNW 9.7 km/h 24.1 km/h 27% 0 mm 749.0 W/m2
11:00 29 °C 8.1 °C 1009.7 hPa NNW 6.4 km/h 11.3 km/h 27% 0 mm 759.0 W/m2
11:05 29.3 °C 7.8 °C 1009.7 hPa NNW 7.9 km/h 14.5 km/h 26% 0 mm 775.0 W/m2
11:10 29.5 °C 7.4 °C 1009.7 hPa NNW 7.9 km/h 8 km/h 25% 0 mm 782.0 W/m2
11:20 30 °C 7.2 °C 1009.7 hPa NNW 3.2 km/h 11.3 km/h 24% 0 mm 798.0 W/m2
11:25 30 °C 6.6 °C 1009.4 hPa NNW 9.7 km/h 11.3 km/h 23% 0 mm 807.0 W/m2
11:35 30.4 °C 5.6 °C 1009.4 hPa NNW 11.1 km/h 19.3 km/h 21% 0 mm 824.0 W/m2
11:40 30.2 °C 5.5 °C 1009.4 hPa Calm   6.4 km/h 21% 0 mm 828.0 W/m2
11:45 30.3 °C 5.5 °C 1009 hPa Calm     21% 0 mm 837.0 W/m2
11:50 30.5 °C 5 °C 1009 hPa NNW 11.1 km/h 14.5 km/h 20% 0 mm 846.0 W/m2
11:55 30.4 °C 4.9 °C 1009 hPa Calm   17.7 km/h 20% 0 mm 851.0 W/m2
12:00 30.4 °C 4.2 °C 1009 hPa NNW 7.9 km/h 14.5 km/h 19% 0 mm 851.0 W/m2
12:12 30.8 °C 5.2 °C 1009 hPa Calm   17.7 km/h 20% 0 mm 858.0 W/m2
12:21 31.2 °C 4.8 °C 1008.7 hPa NW 19.5 km/h 20.9 km/h 19% 0 mm 863.0 W/m2
12:36 31.2 °C 4.8 °C 1008.4 hPa NW 13 km/h 17.7 km/h 19% 0 mm 867.0 W/m2
12:57 31.6 °C 5.2 °C 1008.4 hPa NW 13 km/h 17.7 km/h 19% 0 mm 868.0 W/m2
13:06 31.9 °C 4.6 °C 1008 hPa Calm     18% 0 mm 868.0 W/m2
13:16 32.3 °C 3.3 °C 1008 hPa NW 9.7 km/h 11.3 km/h 16% 0 mm 868.0 W/m2
13:32 32.4 °C 2.4 °C 1007.7 hPa NW 9.7 km/h 17.7 km/h 15% 0 mm 854.0 W/m2
13:37 32.4 °C 2.4 °C 1007.7 hPa NW 9.7 km/h 17.7 km/h 15% 0 mm 854.0 W/m2
13:52 33.1 °C 1 °C 1007.3 hPa Calm     13% 0 mm 849.0 W/m2
14:02 33.6 °C 0.3 °C 1007 hPa NW 9.7 km/h 17.7 km/h 12% 0 mm 828.0 W/m2
14:17 33.6 °C -3.6 °C 1007 hPa WNW 17.7 km/h 22.5 km/h 9% 0 mm 809.0 W/m2
14:25 33.6 °C -3.6 °C 1007 hPa WNW 17.7 km/h 22.5 km/h 9% 0 mm 809.0 W/m2
14:32 33.7 °C -3.6 °C 1006.7 hPa WNW 11.1 km/h 17.7 km/h 9% 0 mm 765.0 W/m2
15:00 33.8 °C -5 °C 1006.3 hPa Calm   22.5 km/h 8% 0 mm 724.0 W/m2
15:14 33.8 °C -3.5 °C 1006 hPa Calm   8 km/h 9% 0 mm 679.0 W/m2
15:23 34.1 °C -3.3 °C 1005.6 hPa WNW 9.7 km/h 22.5 km/h 9% 0 mm 638.0 W/m2
15:44 34.6 °C -4.5 °C 1005.6 hPa WNW 9.7 km/h 20.9 km/h 8% 0 mm 594.0 W/m2
15:53 34.8 °C -6.1 °C 1005.3 hPa WNW 9.7 km/h 24.1 km/h 7% 0 mm 545.0 W/m2
16:12 34.6 °C -6.2 °C 1005.3 hPa Calm   16.1 km/h 7% 0 mm 496.0 W/m2
16:20 34.4 °C -6.4 °C 1005.3 hPa WNW 7.9 km/h 12.9 km/h 7% 0 mm 462.0 W/m2
17:33 33.5 °C -3.7 °C 1005 hPa SW 9.7 km/h 27.4 km/h 9% 0 mm 220.0 W/m2
17:43 33.2 °C -1.2 °C 1005.3 hPa SSW 20.9 km/h 30.6 km/h 11% 0 mm 179.0 W/m2
17:53 32.6 °C -0.5 °C 1005.3 hPa SSW 22.7 km/h 27.4 km/h 12% 0 mm 135.0 W/m2
18:00 32.2 °C -0.8 °C 1005.6 hPa SSW 20.9 km/h 29 km/h 12% 0 mm 98.0 W/m2
18:10 31.8 °C -1.1 °C 1005.6 hPa SSW 20.9 km/h 27.4 km/h 12% 0 mm 62.0 W/m2
18:20 31.3 °C -0.4 °C 1005.6 hPa South 20.9 km/h 25.7 km/h 13% 0 mm 35.0 W/m2
18:26 31.1 °C 0.5 °C 1005.6 hPa South 17.7 km/h 27.4 km/h 14% 0 mm 25.0 W/m2
18:35 30.6 °C 0.1 °C 1005.6 hPa South 19.5 km/h 20.9 km/h 14% 0 mm 14.0 W/m2
18:40 30.3 °C 0.8 °C 1005.6 hPa SSW 19.5 km/h 29 km/h 15% 0 mm 11.0 W/m2
18:46 30.1 °C 0.6 °C 1006 hPa SSW 25.9 km/h 25.9 km/h 15% 0 mm 7.0 W/m2
18:55 29.6 °C 1.1 °C 1006 hPa SSW 22.7 km/h 30.6 km/h 16% 0 mm 0.0 W/m2
19:00 29.4 °C 0.1 °C 1006.3 hPa SSW 14.3 km/h 24.1 km/h 15% 0 mm 0.0 W/m2
19:23 28.7 °C -0.5 °C 1006.3 hPa SSW 17.7 km/h 22.5 km/h 15% 0 mm 0.0 W/m2
19:25 28.4 °C -0.7 °C 1006.3 hPa SSW 16.3 km/h 17.7 km/h 15% 0 mm 0.0 W/m2
19:33 28.3 °C 0.1 °C 1006.3 hPa SSW 14.3 km/h 16.1 km/h 16% 0 mm 0.0 W/m2
19:51 27.9 °C -1.1 °C 1006.3 hPa SSW 13 km/h 16.1 km/h 15% 0 mm 0.0 W/m2
21:43 25.4 °C 0.8 °C 1007.3 hPa SSW 14.3 km/h 20.9 km/h 20% 0 mm 0.0 W/m2
21:56 25 °C 0.5 °C 1007.3 hPa SSW 14.3 km/h 19.3 km/h 20% 0 mm 0.0 W/m2
22:04 24.9 °C 0.4 °C 1007.3 hPa SSW 14.3 km/h 20.9 km/h 20% 0 mm 0.0 W/m2
22:13 24.9 °C -0.3 °C 1007.3 hPa SSW 17.7 km/h 19.3 km/h 19% 0 mm 0.0 W/m2
22:18 24.9 °C -0.3 °C 1007.3 hPa SSW 13 km/h 17.7 km/h 19% 0 mm 0.0 W/m2
22:23 24.8 °C -0.4 °C 1007.3 hPa SSW 14.3 km/h 19.3 km/h 19% 0 mm 0.0 W/m2
22:28 24.8 °C -0.4 °C 1007.3 hPa SSW 14.3 km/h 17.7 km/h 19% 0 mm 0.0 W/m2
22:38 24.9 °C -0.3 °C 1007 hPa SSW 11.1 km/h 19.3 km/h 19% 0 mm 0.0 W/m2
22:43 25.1 °C -0.1 °C 1007 hPa SSW 13 km/h 17.7 km/h 19% 0 mm 0.0 W/m2
22:53 24.7 °C 0.2 °C 1007 hPa SSW 13 km/h 14.5 km/h 20% 0 mm 0.0 W/m2
22:58 24.5 °C 0.1 °C 1007 hPa SSW 9.7 km/h 16.1 km/h 20% 0 mm 0.0 W/m2
23:09 24.4 °C 0 °C 1007 hPa SSW 11.1 km/h 14.5 km/h 20% 0 mm 0.0 W/m2
23:19 24.2 °C 0.5 °C 1007 hPa SSW 13 km/h 16.1 km/h 21% 0 mm 0.0 W/m2
23:24 24.2 °C 0.5 °C 1007 hPa SSW 13 km/h 14.5 km/h 21% 0 mm 0.0 W/m2
23:30 24 °C 0.3 °C 1007 hPa SSW 7.9 km/h 12.9 km/h 21% 0 mm 0.0 W/m2
23:39 23.5 °C 0.6 °C 1007 hPa SSW 7.9 km/h 9.7 km/h 22% 0 mm 0.0 W/m2
23:44 23.1 °C 0.2 °C 1007 hPa SSW 11.1 km/h 12.9 km/h 22% 0 mm 0.0 W/m2
23:50 23 °C 0.7 °C 1007 hPa SSW 11.1 km/h 14.5 km/h 23% 0 mm 0.0 W/m2
23:55 22.9 °C 0.7 °C 1007 hPa SSW 7.9 km/h 11.3 km/h 23% 0 mm 0.0 W/m2
Canyon Roadhouse, Fishriver Canyon, Namibia
Compliments of Weather Underground - 2.25 mb